sensor_id;sensor_type;location;lat;lon;timestamp;P1;durP1;ratioP1;P2;durP2;ratioP2
13797;SDS011;6970;51.340;3.240;2023-07-31T00:00:42;15.73;;;7.40;;
13797;SDS011;6970;51.340;3.240;2023-07-31T00:03:10;20.33;;;7.93;;
13797;SDS011;6970;51.340;3.240;2023-07-31T00:05:40;20.63;;;7.90;;
13797;SDS011;6970;51.340;3.240;2023-07-31T00:08:07;21.97;;;8.53;;
13797;SDS011;6970;51.340;3.240;2023-07-31T00:10:36;22.10;;;8.80;;
13797;SDS011;6970;51.340;3.240;2023-07-31T00:13:04;23.67;;;8.90;;
13797;SDS011;6970;51.340;3.240;2023-07-31T00:15:34;20.27;;;8.47;;
13797;SDS011;6970;51.340;3.240;2023-07-31T00:20:32;27.10;;;8.60;;
13797;SDS011;6970;51.340;3.240;2023-07-31T00:23:00;22.23;;;9.10;;
13797;SDS011;6970;51.340;3.240;2023-07-31T00:25:30;21.80;;;7.73;;
13797;SDS011;6970;51.340;3.240;2023-07-31T00:30:30;18.77;;;8.20;;
13797;SDS011;6970;51.340;3.240;2023-07-31T00:32:57;18.20;;;7.73;;
13797;SDS011;6970;51.340;3.240;2023-07-31T00:35:27;22.13;;;8.40;;
13797;SDS011;6970;51.340;3.240;2023-07-31T00:37:56;17.47;;;7.73;;
13797;SDS011;6970;51.340;3.240;2023-07-31T00:40:25;26.60;;;8.03;;
13797;SDS011;6970;51.340;3.240;2023-07-31T00:42:52;21.77;;;8.40;;
13797;SDS011;6970;51.340;3.240;2023-07-31T00:47:53;23.30;;;8.93;;
13797;SDS011;6970;51.340;3.240;2023-07-31T00:50:24;17.93;;;7.80;;
13797;SDS011;6970;51.340;3.240;2023-07-31T00:52:52;20.27;;;8.47;;
13797;SDS011;6970;51.340;3.240;2023-07-31T00:55:20;19.80;;;7.80;;
13797;SDS011;6970;51.340;3.240;2023-07-31T00:57:49;21.90;;;7.27;;
13797;SDS011;6970;51.340;3.240;2023-07-31T01:00:19;18.87;;;7.70;;
13797;SDS011;6970;51.340;3.240;2023-07-31T01:02:46;17.17;;;7.27;;
13797;SDS011;6970;51.340;3.240;2023-07-31T01:05:15;19.97;;;7.70;;
13797;SDS011;6970;51.340;3.240;2023-07-31T01:07:49;20.90;;;7.27;;
13797;SDS011;6970;51.340;3.240;2023-07-31T01:10:30;22.83;;;7.80;;
13797;SDS011;6970;51.340;3.240;2023-07-31T01:13:09;23.80;;;8.47;;
13797;SDS011;6970;51.340;3.240;2023-07-31T01:15:39;19.90;;;6.93;;
13797;SDS011;6970;51.340;3.240;2023-07-31T01:18:09;16.03;;;7.10;;
13797;SDS011;6970;51.340;3.240;2023-07-31T01:20:38;18.60;;;7.67;;
13797;SDS011;6970;51.340;3.240;2023-07-31T01:23:56;23.77;;;8.17;;
13797;SDS011;6970;51.340;3.240;2023-07-31T01:31:11;21.00;;;6.53;;
13797;SDS011;6970;51.340;3.240;2023-07-31T01:33:45;25.03;;;7.70;;
13797;SDS011;6970;51.340;3.240;2023-07-31T01:36:16;20.27;;;6.90;;
13797;SDS011;6970;51.340;3.240;2023-07-31T01:41:19;19.53;;;6.83;;
13797;SDS011;6970;51.340;3.240;2023-07-31T01:43:50;16.23;;;6.53;;
13797;SDS011;6970;51.340;3.240;2023-07-31T01:48:50;21.17;;;7.13;;
13797;SDS011;6970;51.340;3.240;2023-07-31T01:51:23;19.87;;;6.57;;
13797;SDS011;6970;51.340;3.240;2023-07-31T01:53:58;15.93;;;6.93;;
13797;SDS011;6970;51.340;3.240;2023-07-31T01:58:58;16.33;;;6.23;;
13797;SDS011;6970;51.340;3.240;2023-07-31T02:03:56;11.40;;;6.00;;
13797;SDS011;6970;51.340;3.240;2023-07-31T02:06:25;16.20;;;6.80;;
13797;SDS011;6970;51.340;3.240;2023-07-31T02:08:53;16.20;;;6.93;;
13797;SDS011;6970;51.340;3.240;2023-07-31T02:11:26;14.73;;;6.63;;
13797;SDS011;6970;51.340;3.240;2023-07-31T02:16:23;16.47;;;6.13;;
13797;SDS011;6970;51.340;3.240;2023-07-31T02:21:23;14.43;;;6.53;;
13797;SDS011;6970;51.340;3.240;2023-07-31T02:26:20;18.63;;;6.13;;
13797;SDS011;6970;51.340;3.240;2023-07-31T02:31:32;16.23;;;6.53;;
13797;SDS011;6970;51.340;3.240;2023-07-31T02:34:00;17.63;;;6.27;;
13797;SDS011;6970;51.340;3.240;2023-07-31T02:36:29;14.87;;;6.13;;
13797;SDS011;6970;51.340;3.240;2023-07-31T02:38:59;16.80;;;6.00;;
13797;SDS011;6970;51.340;3.240;2023-07-31T02:41:30;15.00;;;6.17;;
13797;SDS011;6970;51.340;3.240;2023-07-31T02:43:58;17.97;;;5.90;;
13797;SDS011;6970;51.340;3.240;2023-07-31T02:46:25;18.10;;;6.03;;
13797;SDS011;6970;51.340;3.240;2023-07-31T02:48:53;14.47;;;6.07;;
13797;SDS011;6970;51.340;3.240;2023-07-31T02:51:21;14.20;;;6.30;;
13797;SDS011;6970;51.340;3.240;2023-07-31T02:56:19;13.60;;;5.87;;
13797;SDS011;6970;51.340;3.240;2023-07-31T02:58:48;12.93;;;5.80;;
13797;SDS011;6970;51.340;3.240;2023-07-31T03:03:49;16.00;;;6.60;;
13797;SDS011;6970;51.340;3.240;2023-07-31T03:06:18;10.83;;;5.60;;
13797;SDS011;6970;51.340;3.240;2023-07-31T03:08:46;17.50;;;6.10;;
13797;SDS011;6970;51.340;3.240;2023-07-31T03:11:13;16.37;;;5.73;;
13797;SDS011;6970;51.340;3.240;2023-07-31T03:13:40;11.43;;;5.53;;
13797;SDS011;6970;51.340;3.240;2023-07-31T03:16:08;13.33;;;5.33;;
13797;SDS011;6970;51.340;3.240;2023-07-31T03:18:36;14.00;;;6.00;;
13797;SDS011;6970;51.340;3.240;2023-07-31T03:21:04;13.83;;;5.83;;
13797;SDS011;6970;51.340;3.240;2023-07-31T03:23:32;14.67;;;5.73;;
13797;SDS011;6970;51.340;3.240;2023-07-31T03:26:02;9.83;;;4.90;;
13797;SDS011;6970;51.340;3.240;2023-07-31T03:28:35;15.73;;;5.20;;
13797;SDS011;6970;51.340;3.240;2023-07-31T03:36:07;10.20;;;5.23;;
13797;SDS011;6970;51.340;3.240;2023-07-31T03:41:07;11.30;;;5.10;;
13797;SDS011;6970;51.340;3.240;2023-07-31T03:43:35;12.13;;;4.90;;
13797;SDS011;6970;51.340;3.240;2023-07-31T03:48:35;11.30;;;5.07;;
13797;SDS011;6970;51.340;3.240;2023-07-31T03:51:02;8.57;;;4.53;;
13797;SDS011;6970;51.340;3.240;2023-07-31T03:53:30;10.60;;;5.17;;
13797;SDS011;6970;51.340;3.240;2023-07-31T03:55:57;11.73;;;5.60;;
13797;SDS011;6970;51.340;3.240;2023-07-31T03:58:28;8.80;;;4.70;;
13797;SDS011;6970;51.340;3.240;2023-07-31T04:01:12;9.53;;;4.93;;
13797;SDS011;6970;51.340;3.240;2023-07-31T04:03:40;9.40;;;4.70;;
13797;SDS011;6970;51.340;3.240;2023-07-31T04:06:08;8.87;;;5.23;;
13797;SDS011;6970;51.340;3.240;2023-07-31T04:08:35;12.13;;;4.90;;
13797;SDS011;6970;51.340;3.240;2023-07-31T04:11:02;12.73;;;4.90;;
13797;SDS011;6970;51.340;3.240;2023-07-31T04:13:30;9.93;;;5.23;;
13797;SDS011;6970;51.340;3.240;2023-07-31T04:15:58;8.77;;;5.50;;
13797;SDS011;6970;51.340;3.240;2023-07-31T04:20:57;9.27;;;4.60;;
13797;SDS011;6970;51.340;3.240;2023-07-31T04:23:27;10.90;;;5.37;;
13797;SDS011;6970;51.340;3.240;2023-07-31T04:26:00;7.00;;;4.90;;
13797;SDS011;6970;51.340;3.240;2023-07-31T04:31:00;13.90;;;6.03;;
13797;SDS011;6970;51.340;3.240;2023-07-31T04:33:27;10.13;;;5.20;;
13797;SDS011;6970;51.340;3.240;2023-07-31T04:35:55;12.50;;;6.00;;
13797;SDS011;6970;51.340;3.240;2023-07-31T04:38:22;9.40;;;5.00;;
13797;SDS011;6970;51.340;3.240;2023-07-31T04:40:49;10.73;;;5.37;;
13797;SDS011;6970;51.340;3.240;2023-07-31T04:43:17;10.70;;;5.20;;
13797;SDS011;6970;51.340;3.240;2023-07-31T04:45:49;11.63;;;5.30;;
13797;SDS011;6970;51.340;3.240;2023-07-31T04:48:20;9.37;;;5.20;;
13797;SDS011;6970;51.340;3.240;2023-07-31T04:50:50;10.13;;;5.70;;
13797;SDS011;6970;51.340;3.240;2023-07-31T04:53:19;9.03;;;4.63;;
13797;SDS011;6970;51.340;3.240;2023-07-31T04:55:49;12.63;;;5.70;;
13797;SDS011;6970;51.340;3.240;2023-07-31T05:00:47;8.60;;;4.63;;
13797;SDS011;6970;51.340;3.240;2023-07-31T05:03:16;10.70;;;5.13;;
13797;SDS011;6970;51.340;3.240;2023-07-31T05:05:46;12.57;;;5.13;;
13797;SDS011;6970;51.340;3.240;2023-07-31T05:08:13;14.03;;;5.10;;
13797;SDS011;6970;51.340;3.240;2023-07-31T05:10:42;9.47;;;4.60;;
13797;SDS011;6970;51.340;3.240;2023-07-31T05:13:12;13.00;;;5.43;;
13797;SDS011;6970;51.340;3.240;2023-07-31T05:18:11;8.57;;;4.60;;
13797;SDS011;6970;51.340;3.240;2023-07-31T05:20:40;15.27;;;5.50;;
13797;SDS011;6970;51.340;3.240;2023-07-31T05:23:07;7.23;;;3.90;;
13797;SDS011;6970;51.340;3.240;2023-07-31T05:25:36;9.93;;;4.67;;
13797;SDS011;6970;51.340;3.240;2023-07-31T05:28:04;12.93;;;4.40;;
13797;SDS011;6970;51.340;3.240;2023-07-31T05:33:01;7.43;;;4.13;;
13797;SDS011;6970;51.340;3.240;2023-07-31T05:35:28;8.10;;;4.37;;
13797;SDS011;6970;51.340;3.240;2023-07-31T05:37:57;4.93;;;3.83;;
13797;SDS011;6970;51.340;3.240;2023-07-31T05:40:31;4.33;;;3.40;;
13797;SDS011;6970;51.340;3.240;2023-07-31T05:42:59;7.60;;;4.60;;
13797;SDS011;6970;51.340;3.240;2023-07-31T05:45:28;9.53;;;3.93;;
13797;SDS011;6970;51.340;3.240;2023-07-31T05:47:57;8.77;;;4.30;;
13797;SDS011;6970;51.340;3.240;2023-07-31T05:50:24;8.30;;;4.07;;
13797;SDS011;6970;51.340;3.240;2023-07-31T05:52:55;9.93;;;4.70;;
13797;SDS011;6970;51.340;3.240;2023-07-31T05:55:23;9.13;;;4.40;;
13797;SDS011;6970;51.340;3.240;2023-07-31T05:57:53;7.63;;;3.80;;
13797;SDS011;6970;51.340;3.240;2023-07-31T06:00:21;10.90;;;4.57;;
13797;SDS011;6970;51.340;3.240;2023-07-31T06:02:54;8.50;;;4.33;;
13797;SDS011;6970;51.340;3.240;2023-07-31T06:05:22;10.90;;;3.87;;
13797;SDS011;6970;51.340;3.240;2023-07-31T06:10:20;7.50;;;3.70;;
13797;SDS011;6970;51.340;3.240;2023-07-31T06:12:49;10.73;;;5.10;;
13797;SDS011;6970;51.340;3.240;2023-07-31T06:17:46;12.63;;;4.20;;
13797;SDS011;6970;51.340;3.240;2023-07-31T06:20:20;7.43;;;4.20;;
13797;SDS011;6970;51.340;3.240;2023-07-31T06:22:49;7.10;;;4.47;;
13797;SDS011;6970;51.340;3.240;2023-07-31T06:27:49;10.67;;;3.90;;
13797;SDS011;6970;51.340;3.240;2023-07-31T06:30:20;11.07;;;4.53;;
13797;SDS011;6970;51.340;3.240;2023-07-31T06:32:48;8.93;;;4.00;;
13797;SDS011;6970;51.340;3.240;2023-07-31T06:35:18;11.97;;;4.50;;
13797;SDS011;6970;51.340;3.240;2023-07-31T06:37:47;8.07;;;4.30;;
13797;SDS011;6970;51.340;3.240;2023-07-31T06:40:15;8.53;;;4.03;;
13797;SDS011;6970;51.340;3.240;2023-07-31T06:42:46;7.20;;;4.13;;
13797;SDS011;6970;51.340;3.240;2023-07-31T06:45:16;6.57;;;3.60;;
13797;SDS011;6970;51.340;3.240;2023-07-31T06:47:45;5.90;;;3.60;;
13797;SDS011;6970;51.340;3.240;2023-07-31T06:50:12;6.97;;;3.77;;
13797;SDS011;6970;51.340;3.240;2023-07-31T06:52:39;5.40;;;3.40;;
13797;SDS011;6970;51.340;3.240;2023-07-31T06:55:17;5.70;;;3.23;;
13797;SDS011;6970;51.340;3.240;2023-07-31T06:57:46;5.40;;;3.40;;
13797;SDS011;6970;51.340;3.240;2023-07-31T07:00:18;5.03;;;3.30;;
13797;SDS011;6970;51.340;3.240;2023-07-31T07:02:45;5.50;;;3.30;;
13797;SDS011;6970;51.340;3.240;2023-07-31T07:05:16;5.57;;;3.20;;
13797;SDS011;6970;51.340;3.240;2023-07-31T07:07:44;5.60;;;3.40;;
13797;SDS011;6970;51.340;3.240;2023-07-31T07:10:11;4.67;;;3.10;;
13797;SDS011;6970;51.340;3.240;2023-07-31T07:12:38;5.47;;;3.30;;
13797;SDS011;6970;51.340;3.240;2023-07-31T07:15:05;4.73;;;3.13;;
13797;SDS011;6970;51.340;3.240;2023-07-31T07:17:34;4.07;;;2.90;;
13797;SDS011;6970;51.340;3.240;2023-07-31T07:20:01;3.30;;;2.53;;
13797;SDS011;6970;51.340;3.240;2023-07-31T07:22:29;4.23;;;3.00;;
13797;SDS011;6970;51.340;3.240;2023-07-31T07:24:57;3.87;;;2.83;;
13797;SDS011;6970;51.340;3.240;2023-07-31T07:27:30;5.47;;;2.40;;
13797;SDS011;6970;51.340;3.240;2023-07-31T07:29:58;3.07;;;2.40;;
13797;SDS011;6970;51.340;3.240;2023-07-31T07:32:27;4.83;;;2.70;;
13797;SDS011;6970;51.340;3.240;2023-07-31T07:37:25;2.17;;;1.93;;
13797;SDS011;6970;51.340;3.240;2023-07-31T07:39:52;3.20;;;1.77;;
13797;SDS011;6970;51.340;3.240;2023-07-31T07:42:20;2.40;;;1.70;;
13797;SDS011;6970;51.340;3.240;2023-07-31T07:44:47;2.10;;;1.90;;
13797;SDS011;6970;51.340;3.240;2023-07-31T07:49:46;2.57;;;1.70;;
13797;SDS011;6970;51.340;3.240;2023-07-31T07:52:20;2.20;;;1.47;;
13797;SDS011;6970;51.340;3.240;2023-07-31T07:54:47;6.10;;;1.50;;
13797;SDS011;6970;51.340;3.240;2023-07-31T07:57:17;3.03;;;1.40;;
13797;SDS011;6970;51.340;3.240;2023-07-31T07:59:46;1.30;;;1.20;;
13797;SDS011;6970;51.340;3.240;2023-07-31T08:02:13;2.37;;;1.40;;
13797;SDS011;6970;51.340;3.240;2023-07-31T08:04:40;1.80;;;1.50;;
13797;SDS011;6970;51.340;3.240;2023-07-31T08:07:13;1.87;;;1.30;;
13797;SDS011;6970;51.340;3.240;2023-07-31T08:09:40;3.57;;;1.40;;
13797;SDS011;6970;51.340;3.240;2023-07-31T08:14:38;1.63;;;1.53;;
13797;SDS011;6970;51.340;3.240;2023-07-31T08:17:05;3.43;;;1.60;;
13797;SDS011;6970;51.340;3.240;2023-07-31T08:22:02;3.37;;;1.20;;
13797;SDS011;6970;51.340;3.240;2023-07-31T08:27:00;1.37;;;1.27;;
13797;SDS011;6970;51.340;3.240;2023-07-31T08:31:58;2.83;;;1.83;;
13797;SDS011;6970;51.340;3.240;2023-07-31T08:34:25;2.43;;;1.80;;
13797;SDS011;6970;51.340;3.240;2023-07-31T08:36:56;1.70;;;1.50;;
13797;SDS011;6970;51.340;3.240;2023-07-31T08:39:24;2.77;;;1.83;;
13797;SDS011;6970;51.340;3.240;2023-07-31T08:44:24;6.47;;;2.20;;
13797;SDS011;6970;51.340;3.240;2023-07-31T08:46:52;3.70;;;1.93;;
13797;SDS011;6970;51.340;3.240;2023-07-31T08:49:20;3.20;;;1.90;;
13797;SDS011;6970;51.340;3.240;2023-07-31T08:51:49;2.30;;;1.97;;
13797;SDS011;6970;51.340;3.240;2023-07-31T08:54:18;3.57;;;2.43;;
13797;SDS011;6970;51.340;3.240;2023-07-31T08:56:47;3.20;;;2.47;;
13797;SDS011;6970;51.340;3.240;2023-07-31T08:59:15;3.00;;;1.87;;
13797;SDS011;6970;51.340;3.240;2023-07-31T09:01:46;3.17;;;2.00;;
13797;SDS011;6970;51.340;3.240;2023-07-31T09:04:20;2.73;;;1.83;;
13797;SDS011;6970;51.340;3.240;2023-07-31T09:06:49;2.70;;;2.17;;
13797;SDS011;6970;51.340;3.240;2023-07-31T09:09:22;2.27;;;1.67;;
13797;SDS011;6970;51.340;3.240;2023-07-31T09:11:49;3.03;;;1.80;;
13797;SDS011;6970;51.340;3.240;2023-07-31T09:14:18;2.67;;;1.50;;
13797;SDS011;6970;51.340;3.240;2023-07-31T09:16:55;4.23;;;1.80;;
13797;SDS011;6970;51.340;3.240;2023-07-31T09:19:32;4.30;;;1.93;;
13797;SDS011;6970;51.340;3.240;2023-07-31T09:22:00;2.70;;;1.70;;
13797;SDS011;6970;51.340;3.240;2023-07-31T09:24:29;2.70;;;1.80;;
13797;SDS011;6970;51.340;3.240;2023-07-31T09:29:28;3.07;;;1.57;;
13797;SDS011;6970;51.340;3.240;2023-07-31T09:31:56;1.47;;;1.37;;
13797;SDS011;6970;51.340;3.240;2023-07-31T09:34:37;2.93;;;1.60;;
13797;SDS011;6970;51.340;3.240;2023-07-31T09:37:06;1.67;;;1.33;;
13797;SDS011;6970;51.340;3.240;2023-07-31T09:42:14;1.73;;;1.33;;
13797;SDS011;6970;51.340;3.240;2023-07-31T09:44:51;2.70;;;1.13;;
13797;SDS011;6970;51.340;3.240;2023-07-31T09:52:25;3.03;;;1.30;;
13797;SDS011;6970;51.340;3.240;2023-07-31T09:54:53;2.00;;;1.40;;
13797;SDS011;6970;51.340;3.240;2023-07-31T09:57:22;2.07;;;1.23;;
13797;SDS011;6970;51.340;3.240;2023-07-31T10:04:52;2.13;;;1.50;;
13797;SDS011;6970;51.340;3.240;2023-07-31T10:07:25;3.40;;;1.50;;
13797;SDS011;6970;51.340;3.240;2023-07-31T10:10:01;2.13;;;1.70;;
13797;SDS011;6970;51.340;3.240;2023-07-31T10:12:30;2.27;;;1.73;;
13797;SDS011;6970;51.340;3.240;2023-07-31T10:15:00;1.70;;;1.60;;
13797;SDS011;6970;51.340;3.240;2023-07-31T10:17:30;2.60;;;1.90;;
13797;SDS011;6970;51.340;3.240;2023-07-31T10:19:58;2.63;;;1.70;;
13797;SDS011;6970;51.340;3.240;2023-07-31T10:22:28;1.73;;;1.63;;
13797;SDS011;6970;51.340;3.240;2023-07-31T10:24:58;3.13;;;1.80;;
13797;SDS011;6970;51.340;3.240;2023-07-31T10:27:28;1.83;;;1.50;;
13797;SDS011;6970;51.340;3.240;2023-07-31T10:29:56;2.53;;;1.90;;
13797;SDS011;6970;51.340;3.240;2023-07-31T10:32:26;3.07;;;1.70;;
13797;SDS011;6970;51.340;3.240;2023-07-31T10:34:53;1.80;;;1.60;;
13797;SDS011;6970;51.340;3.240;2023-07-31T10:37:38;2.13;;;1.60;;
13797;SDS011;6970;51.340;3.240;2023-07-31T10:40:09;2.23;;;2.00;;
13797;SDS011;6970;51.340;3.240;2023-07-31T10:42:45;2.33;;;1.80;;
13797;SDS011;6970;51.340;3.240;2023-07-31T10:45:24;1.40;;;1.27;;
13797;SDS011;6970;51.340;3.240;2023-07-31T10:48:01;1.77;;;1.47;;
13797;SDS011;6970;51.340;3.240;2023-07-31T10:53:05;1.33;;;1.20;;
13797;SDS011;6970;51.340;3.240;2023-07-31T10:55:40;2.10;;;1.17;;
13797;SDS011;6970;51.340;3.240;2023-07-31T10:58:11;2.17;;;1.00;;
13797;SDS011;6970;51.340;3.240;2023-07-31T11:00:42;2.00;;;1.37;;
13797;SDS011;6970;51.340;3.240;2023-07-31T11:03:24;2.40;;;1.40;;
13797;SDS011;6970;51.340;3.240;2023-07-31T11:05:55;2.00;;;1.60;;
13797;SDS011;6970;51.340;3.240;2023-07-31T11:08:32;4.57;;;2.00;;
13797;SDS011;6970;51.340;3.240;2023-07-31T11:11:10;2.97;;;2.00;;
13797;SDS011;6970;51.340;3.240;2023-07-31T11:13:51;3.13;;;1.87;;
13797;SDS011;6970;51.340;3.240;2023-07-31T11:16:20;2.87;;;1.93;;
13797;SDS011;6970;51.340;3.240;2023-07-31T11:18:53;2.07;;;1.87;;
13797;SDS011;6970;51.340;3.240;2023-07-31T11:21:24;2.17;;;1.70;;
13797;SDS011;6970;51.340;3.240;2023-07-31T11:23:53;2.33;;;2.00;;
13797;SDS011;6970;51.340;3.240;2023-07-31T11:26:24;2.10;;;1.90;;
13797;SDS011;6970;51.340;3.240;2023-07-31T11:28:51;3.07;;;2.07;;
13797;SDS011;6970;51.340;3.240;2023-07-31T11:31:19;2.30;;;1.80;;
13797;SDS011;6970;51.340;3.240;2023-07-31T11:33:49;3.30;;;2.63;;
13797;SDS011;6970;51.340;3.240;2023-07-31T11:36:22;2.67;;;1.70;;
13797;SDS011;6970;51.340;3.240;2023-07-31T11:38:52;3.00;;;2.47;;
13797;SDS011;6970;51.340;3.240;2023-07-31T11:43:51;4.13;;;1.80;;
13797;SDS011;6970;51.340;3.240;2023-07-31T11:46:47;1.60;;;1.50;;
13797;SDS011;6970;51.340;3.240;2023-07-31T11:49:14;1.63;;;1.53;;
13797;SDS011;6970;51.340;3.240;2023-07-31T11:51:42;4.13;;;1.60;;
13797;SDS011;6970;51.340;3.240;2023-07-31T11:54:09;1.67;;;1.57;;
13797;SDS011;6970;51.340;3.240;2023-07-31T11:56:42;2.93;;;1.60;;
13797;SDS011;6970;51.340;3.240;2023-07-31T11:59:13;1.80;;;1.60;;
13797;SDS011;6970;51.340;3.240;2023-07-31T12:01:41;2.83;;;1.83;;
13797;SDS011;6970;51.340;3.240;2023-07-31T12:04:11;2.83;;;1.97;;
13797;SDS011;6970;51.340;3.240;2023-07-31T12:09:10;3.30;;;2.10;;
13797;SDS011;6970;51.340;3.240;2023-07-31T12:11:45;2.97;;;1.70;;
13797;SDS011;6970;51.340;3.240;2023-07-31T12:14:26;5.53;;;5.03;;
13797;SDS011;6970;51.340;3.240;2023-07-31T12:16:57;3.40;;;3.10;;
13797;SDS011;6970;51.340;3.240;2023-07-31T12:19:30;3.00;;;2.10;;
13797;SDS011;6970;51.340;3.240;2023-07-31T12:24:28;3.57;;;2.20;;
13797;SDS011;6970;51.340;3.240;2023-07-31T12:26:55;2.23;;;2.03;;
13797;SDS011;6970;51.340;3.240;2023-07-31T12:29:22;2.93;;;2.70;;
13797;SDS011;6970;51.340;3.240;2023-07-31T12:34:23;2.47;;;2.07;;
13797;SDS011;6970;51.340;3.240;2023-07-31T12:36:53;2.30;;;1.93;;
13797;SDS011;6970;51.340;3.240;2023-07-31T12:39:23;3.40;;;2.10;;
13797;SDS011;6970;51.340;3.240;2023-07-31T12:41:52;1.77;;;1.67;;
13797;SDS011;6970;51.340;3.240;2023-07-31T12:44:19;2.07;;;1.93;;
13797;SDS011;6970;51.340;3.240;2023-07-31T12:46:47;1.80;;;1.67;;
13797;SDS011;6970;51.340;3.240;2023-07-31T12:49:14;1.90;;;1.80;;
13797;SDS011;6970;51.340;3.240;2023-07-31T12:54:13;2.97;;;1.97;;
13797;SDS011;6970;51.340;3.240;2023-07-31T12:56:40;1.70;;;1.53;;
13797;SDS011;6970;51.340;3.240;2023-07-31T12:59:08;2.20;;;1.73;;
13797;SDS011;6970;51.340;3.240;2023-07-31T13:01:41;3.53;;;1.80;;
13797;SDS011;6970;51.340;3.240;2023-07-31T13:04:09;1.60;;;1.40;;
13797;SDS011;6970;51.340;3.240;2023-07-31T13:06:37;3.07;;;1.40;;
13797;SDS011;6970;51.340;3.240;2023-07-31T13:09:07;1.13;;;0.90;;
13797;SDS011;6970;51.340;3.240;2023-07-31T13:11:35;1.53;;;1.40;;
13797;SDS011;6970;51.340;3.240;2023-07-31T13:14:02;2.03;;;1.07;;
13797;SDS011;6970;51.340;3.240;2023-07-31T13:16:31;3.10;;;1.20;;
13797;SDS011;6970;51.340;3.240;2023-07-31T13:18:59;1.47;;;1.33;;
13797;SDS011;6970;51.340;3.240;2023-07-31T13:21:28;1.47;;;1.30;;
13797;SDS011;6970;51.340;3.240;2023-07-31T13:23:55;2.13;;;1.17;;
13797;SDS011;6970;51.340;3.240;2023-07-31T13:26:24;1.80;;;1.30;;
13797;SDS011;6970;51.340;3.240;2023-07-31T13:28:51;1.20;;;1.10;;
13797;SDS011;6970;51.340;3.240;2023-07-31T13:31:19;1.43;;;1.10;;
13797;SDS011;6970;51.340;3.240;2023-07-31T13:33:46;1.50;;;1.30;;
13797;SDS011;6970;51.340;3.240;2023-07-31T13:36:28;1.80;;;1.07;;
13797;SDS011;6970;51.340;3.240;2023-07-31T13:38:55;2.07;;;1.00;;
13797;SDS011;6970;51.340;3.240;2023-07-31T13:41:22;1.00;;;0.90;;
13797;SDS011;6970;51.340;3.240;2023-07-31T13:43:51;1.30;;;1.20;;
13797;SDS011;6970;51.340;3.240;2023-07-31T13:46:18;1.83;;;1.30;;
13797;SDS011;6970;51.340;3.240;2023-07-31T13:48:48;1.00;;;1.00;;
13797;SDS011;6970;51.340;3.240;2023-07-31T13:51:15;2.03;;;1.33;;
13797;SDS011;6970;51.340;3.240;2023-07-31T13:56:12;3.40;;;2.07;;
13797;SDS011;6970;51.340;3.240;2023-07-31T13:58:41;1.63;;;1.53;;
13797;SDS011;6970;51.340;3.240;2023-07-31T14:03:41;3.20;;;1.50;;
13797;SDS011;6970;51.340;3.240;2023-07-31T14:06:12;3.57;;;1.20;;
13797;SDS011;6970;51.340;3.240;2023-07-31T14:08:39;3.07;;;1.17;;
13797;SDS011;6970;51.340;3.240;2023-07-31T14:11:06;1.13;;;1.10;;
13797;SDS011;6970;51.340;3.240;2023-07-31T14:13:34;2.40;;;1.07;;
13797;SDS011;6970;51.340;3.240;2023-07-31T14:16:01;2.43;;;1.30;;
13797;SDS011;6970;51.340;3.240;2023-07-31T14:18:31;1.07;;;1.00;;
13797;SDS011;6970;51.340;3.240;2023-07-31T14:23:29;0.90;;;0.90;;
13797;SDS011;6970;51.340;3.240;2023-07-31T14:28:27;0.33;;;0.33;;
13797;SDS011;6970;51.340;3.240;2023-07-31T14:33:28;2.10;;;0.50;;
13797;SDS011;6970;51.340;3.240;2023-07-31T14:35:55;0.47;;;0.47;;
13797;SDS011;6970;51.340;3.240;2023-07-31T14:38:22;0.50;;;0.40;;
13797;SDS011;6970;51.340;3.240;2023-07-31T14:43:19;1.03;;;0.53;;
13797;SDS011;6970;51.340;3.240;2023-07-31T14:45:52;1.93;;;1.80;;
13797;SDS011;6970;51.340;3.240;2023-07-31T14:48:22;1.70;;;0.70;;
13797;SDS011;6970;51.340;3.240;2023-07-31T14:50:51;0.30;;;0.30;;
13797;SDS011;6970;51.340;3.240;2023-07-31T14:53:19;0.70;;;0.70;;
13797;SDS011;6970;51.340;3.240;2023-07-31T14:55:48;0.77;;;0.50;;
13797;SDS011;6970;51.340;3.240;2023-07-31T14:58:17;0.40;;;0.40;;
13797;SDS011;6970;51.340;3.240;2023-07-31T15:00:45;0.50;;;0.40;;
13797;SDS011;6970;51.340;3.240;2023-07-31T15:05:42;0.40;;;0.40;;
13797;SDS011;6970;51.340;3.240;2023-07-31T15:08:09;0.60;;;0.50;;
13797;SDS011;6970;51.340;3.240;2023-07-31T15:10:37;0.70;;;0.53;;
13797;SDS011;6970;51.340;3.240;2023-07-31T15:13:06;1.63;;;0.50;;
13797;SDS011;6970;51.340;3.240;2023-07-31T15:15:33;0.60;;;0.60;;
13797;SDS011;6970;51.340;3.240;2023-07-31T15:20:33;1.60;;;0.80;;
13797;SDS011;6970;51.340;3.240;2023-07-31T15:23:01;0.63;;;0.63;;
13797;SDS011;6970;51.340;3.240;2023-07-31T15:25:29;0.80;;;0.80;;
13797;SDS011;6970;51.340;3.240;2023-07-31T15:30:29;1.07;;;0.90;;
13797;SDS011;6970;51.340;3.240;2023-07-31T15:32:57;1.77;;;0.90;;
13797;SDS011;6970;51.340;3.240;2023-07-31T15:37:55;1.00;;;0.90;;
13797;SDS011;6970;51.340;3.240;2023-07-31T15:45:29;1.63;;;1.17;;
13797;SDS011;6970;51.340;3.240;2023-07-31T15:47:58;2.23;;;0.90;;
13797;SDS011;6970;51.340;3.240;2023-07-31T15:50:27;2.60;;;1.20;;
13797;SDS011;6970;51.340;3.240;2023-07-31T15:55:24;1.37;;;1.13;;
13797;SDS011;6970;51.340;3.240;2023-07-31T15:57:53;3.27;;;1.70;;
13797;SDS011;6970;51.340;3.240;2023-07-31T16:02:59;4.73;;;2.20;;
13797;SDS011;6970;51.340;3.240;2023-07-31T16:05:26;5.87;;;1.67;;
13797;SDS011;6970;51.340;3.240;2023-07-31T16:07:56;7.13;;;1.60;;
13797;SDS011;6970;51.340;3.240;2023-07-31T16:10:23;7.57;;;1.73;;
13797;SDS011;6970;51.340;3.240;2023-07-31T16:12:51;6.73;;;2.00;;
13797;SDS011;6970;51.340;3.240;2023-07-31T16:15:19;10.40;;;2.27;;
13797;SDS011;6970;51.340;3.240;2023-07-31T16:17:47;8.20;;;2.60;;
13797;SDS011;6970;51.340;3.240;2023-07-31T16:22:48;11.00;;;2.43;;
13797;SDS011;6970;51.340;3.240;2023-07-31T16:25:15;10.37;;;2.23;;
13797;SDS011;6970;51.340;3.240;2023-07-31T16:27:46;9.13;;;2.40;;
13797;SDS011;6970;51.340;3.240;2023-07-31T16:30:16;6.13;;;2.50;;
13797;SDS011;6970;51.340;3.240;2023-07-31T16:32:46;7.97;;;2.60;;
13797;SDS011;6970;51.340;3.240;2023-07-31T16:35:22;10.03;;;2.00;;
13797;SDS011;6970;51.340;3.240;2023-07-31T16:37:49;5.87;;;2.03;;
13797;SDS011;6970;51.340;3.240;2023-07-31T16:40:17;4.47;;;1.70;;
13797;SDS011;6970;51.340;3.240;2023-07-31T16:42:47;7.47;;;2.27;;
13797;SDS011;6970;51.340;3.240;2023-07-31T16:45:14;9.70;;;2.50;;
13797;SDS011;6970;51.340;3.240;2023-07-31T16:47:44;7.03;;;1.57;;
13797;SDS011;6970;51.340;3.240;2023-07-31T16:52:46;6.10;;;1.97;;
13797;SDS011;6970;51.340;3.240;2023-07-31T16:55:17;3.77;;;1.70;;
13797;SDS011;6970;51.340;3.240;2023-07-31T16:57:50;3.63;;;1.43;;
13797;SDS011;6970;51.340;3.240;2023-07-31T17:00:18;6.73;;;2.33;;
13797;SDS011;6970;51.340;3.240;2023-07-31T17:02:45;7.60;;;2.00;;
13797;SDS011;6970;51.340;3.240;2023-07-31T17:05:16;8.47;;;1.80;;
13797;SDS011;6970;51.340;3.240;2023-07-31T17:07:43;5.47;;;1.77;;
13797;SDS011;6970;51.340;3.240;2023-07-31T17:10:11;6.93;;;1.50;;
13797;SDS011;6970;51.340;3.240;2023-07-31T17:12:40;12.17;;;1.87;;
13797;SDS011;6970;51.340;3.240;2023-07-31T17:15:08;7.60;;;2.70;;
13797;SDS011;6970;51.340;3.240;2023-07-31T17:20:05;13.83;;;2.50;;
13797;SDS011;6970;51.340;3.240;2023-07-31T17:22:34;7.57;;;1.97;;
13797;SDS011;6970;51.340;3.240;2023-07-31T17:25:13;12.67;;;2.60;;
13797;SDS011;6970;51.340;3.240;2023-07-31T17:30:18;7.23;;;1.90;;
13797;SDS011;6970;51.340;3.240;2023-07-31T17:32:48;7.70;;;2.00;;
13797;SDS011;6970;51.340;3.240;2023-07-31T17:35:15;4.43;;;2.00;;
13797;SDS011;6970;51.340;3.240;2023-07-31T17:37:45;4.63;;;1.60;;
13797;SDS011;6970;51.340;3.240;2023-07-31T17:42:43;6.47;;;2.20;;
13797;SDS011;6970;51.340;3.240;2023-07-31T17:47:42;8.37;;;2.33;;
13797;SDS011;6970;51.340;3.240;2023-07-31T17:50:10;6.97;;;1.90;;
13797;SDS011;6970;51.340;3.240;2023-07-31T17:52:40;11.37;;;2.20;;
13797;SDS011;6970;51.340;3.240;2023-07-31T17:57:38;11.30;;;2.30;;
13797;SDS011;6970;51.340;3.240;2023-07-31T18:00:05;8.63;;;2.07;;